Главная страница
METAR-TAF:

METAR-TAF

Аэропорты :

Квебек, Квебек, Канада

широта: 46-48N, долгота: 071-23W, высота над уровнем моря: 70 м

Текущие метеонаблюдения

Эта сводка был подготовлена 18 минут назад, в 16:00 UTC
Ветер 4 Узел от западный
Температура 8°C
Влажность 31%
Давление 1027 hPa
Видимость: 48.3 км
ясное небо

METAR: CYQB 221600Z 26004KT 30SM SKC 08/M08 A3034 RMK SLP279

Время: 12:18 (16:18 UTC)

Прогноз

Эта сводка был подготовлена 4 часа и 40 минут назад, в 11:38 UTC
Прогноз действительный с 22-го 12 UTC до 23-го 12 UTC
Ветер 8 Узел от западный
Видимость: 10 км
небольшая облачность на высоте 7000 фута
изменения
С 23-го 00 UTC до 23-го 02 UTC
Ветер 3 Узел переменных направлений
ясное небо

TAF: CYQB 221138Z 2212/2312 28008KT P6SM FEW070 BECMG 2300/2302 VRB03KT SKC RMK NXT FCST BY 221800Z

Метеонаблюдения и прогнозы для более 4000 аэропортов (сводки METAR и TAF).

Имеющиеся станции представлены на карте желтыми и красными точками.

Чтобы увидеть название станции, наведите на нее мышь.

Затем щелкните, чтобы увидеть метеонаблюдения и метеопрогнозы.

Управление картой: чтобы увеличить масштаб, щелкните зеленые кнопки с черным крестиком; чтобы уменьшить масштаб, щелкните зеленую кнопку с тире; для просмотра соседних карт щелкайте зеленые стрелки.


METAR-TAF: